aviador You're here:

KTVF Decoded Metar

THIEF RIVER in MN, USA
Report Time2017-08-19 14:01:00
UTC Time2017-08-19 14:55:21
Flight Rules vfr VFR
Wind190° at 07 kt
W.Decomp.*RWY 21: 6.3 kt HW 3 kt LCW
RWY 13: 4.0 kt HW 5.7 kt RCW
W.Rank190° ranks 8
Current wind is below 190° avg. (9.1)
Visibility9999 m
Phenomena:N/A
Clouds:N/A
Expected CloudBase > 1,600 ft AGL from Temp-Dew spread
CeilingNone
Temp18°C (ISA +5)
Dew Point14°C (78% RH)
AAT16.8°C
QNH1012 hPa
Density Alt1,978 ft
Elevation1,115 ft
Report Wrong Elevation
Raw Report
KTVF 191401Z AUTO 19007KT 10SM CLR 18/14 A2987 RMK AO2 SLP116
T01780144=

Extra information for KTVF:More info

Metar Taf Metar & Taf Last 4 Metars F.Rules Stats Wind Profile Meteogram Temp Stats Airport Information Weather charts Add Link Nearby VenuesMetar ALERT Operation Metar Decoded Social comments

AIRNAV info for KTVF